sensor_id;sensor_type;location;lat;lon;timestamp;P1;durP1;ratioP1;P2;durP2;ratioP2
7729;SDS011;3908;52.310;7.230;2022-12-07T00:00:12;5.53;;;4.07;;
7729;SDS011;3908;52.310;7.230;2022-12-07T00:03:00;7.47;;;4.57;;
7729;SDS011;3908;52.310;7.230;2022-12-07T00:05:47;9.20;;;4.50;;
7729;SDS011;3908;52.310;7.230;2022-12-07T00:08:38;11.73;;;5.37;;
7729;SDS011;3908;52.310;7.230;2022-12-07T00:11:26;7.00;;;4.10;;
7729;SDS011;3908;52.310;7.230;2022-12-07T00:14:13;8.00;;;4.17;;
7729;SDS011;3908;52.310;7.230;2022-12-07T00:17:02;6.20;;;4.33;;
7729;SDS011;3908;52.310;7.230;2022-12-07T00:19:50;6.93;;;4.00;;
7729;SDS011;3908;52.310;7.230;2022-12-07T00:22:38;5.97;;;3.70;;
7729;SDS011;3908;52.310;7.230;2022-12-07T00:25:28;8.83;;;3.67;;
7729;SDS011;3908;52.310;7.230;2022-12-07T00:28:20;5.60;;;3.43;;
7729;SDS011;3908;52.310;7.230;2022-12-07T00:31:09;5.37;;;3.90;;
7729;SDS011;3908;52.310;7.230;2022-12-07T00:33:57;4.07;;;3.43;;
7729;SDS011;3908;52.310;7.230;2022-12-07T00:36:48;7.53;;;4.23;;
7729;SDS011;3908;52.310;7.230;2022-12-07T00:39:36;5.63;;;3.47;;
7729;SDS011;3908;52.310;7.230;2022-12-07T00:42:26;8.23;;;3.67;;
7729;SDS011;3908;52.310;7.230;2022-12-07T00:45:19;8.50;;;3.70;;
7729;SDS011;3908;52.310;7.230;2022-12-07T00:48:06;5.70;;;3.60;;
7729;SDS011;3908;52.310;7.230;2022-12-07T00:50:53;13.23;;;3.73;;
7729;SDS011;3908;52.310;7.230;2022-12-07T00:53:41;6.57;;;3.43;;
7729;SDS011;3908;52.310;7.230;2022-12-07T00:56:31;4.67;;;2.70;;
7729;SDS011;3908;52.310;7.230;2022-12-07T00:59:23;5.07;;;2.67;;
7729;SDS011;3908;52.310;7.230;2022-12-07T01:02:13;4.70;;;2.87;;
7729;SDS011;3908;52.310;7.230;2022-12-07T01:05:00;7.00;;;2.93;;
7729;SDS011;3908;52.310;7.230;2022-12-07T01:07:48;7.17;;;2.93;;
7729;SDS011;3908;52.310;7.230;2022-12-07T01:10:36;4.67;;;2.67;;
7729;SDS011;3908;52.310;7.230;2022-12-07T01:13:23;8.47;;;3.13;;
7729;SDS011;3908;52.310;7.230;2022-12-07T01:16:13;6.87;;;2.73;;
7729;SDS011;3908;52.310;7.230;2022-12-07T01:19:02;5.80;;;2.83;;
7729;SDS011;3908;52.310;7.230;2022-12-07T01:21:50;6.67;;;2.47;;
7729;SDS011;3908;52.310;7.230;2022-12-07T01:24:45;8.70;;;2.80;;
7729;SDS011;3908;52.310;7.230;2022-12-07T01:27:33;11.57;;;2.80;;
7729;SDS011;3908;52.310;7.230;2022-12-07T01:30:21;4.17;;;2.50;;
7729;SDS011;3908;52.310;7.230;2022-12-07T01:33:11;4.60;;;2.70;;
7729;SDS011;3908;52.310;7.230;2022-12-07T01:36:03;5.03;;;2.50;;
7729;SDS011;3908;52.310;7.230;2022-12-07T01:38:51;7.30;;;2.57;;
7729;SDS011;3908;52.310;7.230;2022-12-07T01:41:41;8.63;;;3.10;;
7729;SDS011;3908;52.310;7.230;2022-12-07T01:44:29;10.13;;;2.70;;
7729;SDS011;3908;52.310;7.230;2022-12-07T01:47:18;7.57;;;2.60;;
7729;SDS011;3908;52.310;7.230;2022-12-07T01:50:07;5.63;;;2.10;;
7729;SDS011;3908;52.310;7.230;2022-12-07T01:52:56;6.17;;;3.33;;
7729;SDS011;3908;52.310;7.230;2022-12-07T01:55:46;6.33;;;2.17;;
7729;SDS011;3908;52.310;7.230;2022-12-07T01:58:38;7.90;;;2.43;;
7729;SDS011;3908;52.310;7.230;2022-12-07T02:01:25;8.90;;;2.40;;
7729;SDS011;3908;52.310;7.230;2022-12-07T02:04:13;7.53;;;2.57;;
7729;SDS011;3908;52.310;7.230;2022-12-07T02:07:02;7.00;;;2.30;;
7729;SDS011;3908;52.310;7.230;2022-12-07T02:09:51;6.83;;;2.60;;
7729;SDS011;3908;52.310;7.230;2022-12-07T02:12:38;3.63;;;1.83;;
7729;SDS011;3908;52.310;7.230;2022-12-07T02:15:27;7.43;;;2.40;;
7729;SDS011;3908;52.310;7.230;2022-12-07T02:18:22;7.30;;;2.03;;
7729;SDS011;3908;52.310;7.230;2022-12-07T02:21:19;6.93;;;1.90;;
7729;SDS011;3908;52.310;7.230;2022-12-07T02:24:16;3.10;;;2.13;;
7729;SDS011;3908;52.310;7.230;2022-12-07T02:30:33;10.33;;;1.90;;
7729;SDS011;3908;52.310;7.230;2022-12-07T02:33:28;7.80;;;2.03;;
7729;SDS011;3908;52.310;7.230;2022-12-07T02:36:21;8.03;;;2.10;;
7729;SDS011;3908;52.310;7.230;2022-12-07T02:39:14;6.60;;;2.20;;
7729;SDS011;3908;52.310;7.230;2022-12-07T02:42:07;8.00;;;1.63;;
7729;SDS011;3908;52.310;7.230;2022-12-07T02:45:01;9.97;;;2.70;;
7729;SDS011;3908;52.310;7.230;2022-12-07T02:47:53;3.67;;;2.20;;
7729;SDS011;3908;52.310;7.230;2022-12-07T02:50:44;5.00;;;2.13;;
7729;SDS011;3908;52.310;7.230;2022-12-07T02:53:32;8.90;;;2.20;;
7729;SDS011;3908;52.310;7.230;2022-12-07T02:56:22;3.80;;;1.87;;
7729;SDS011;3908;52.310;7.230;2022-12-07T02:59:17;5.50;;;1.70;;
7729;SDS011;3908;52.310;7.230;2022-12-07T03:02:16;3.60;;;2.00;;
7729;SDS011;3908;52.310;7.230;2022-12-07T03:05:28;5.87;;;2.03;;
7729;SDS011;3908;52.310;7.230;2022-12-07T03:08:31;6.97;;;2.03;;
7729;SDS011;3908;52.310;7.230;2022-12-07T03:11:32;4.37;;;1.80;;
7729;SDS011;3908;52.310;7.230;2022-12-07T03:14:29;5.30;;;1.90;;
7729;SDS011;3908;52.310;7.230;2022-12-07T03:17:19;3.80;;;1.70;;
7729;SDS011;3908;52.310;7.230;2022-12-07T03:20:13;2.73;;;1.47;;
7729;SDS011;3908;52.310;7.230;2022-12-07T03:23:07;7.73;;;2.10;;
7729;SDS011;3908;52.310;7.230;2022-12-07T03:25:59;8.43;;;2.20;;
7729;SDS011;3908;52.310;7.230;2022-12-07T03:29:07;11.40;;;2.77;;
7729;SDS011;3908;52.310;7.230;2022-12-07T03:31:58;10.17;;;2.40;;
7729;SDS011;3908;52.310;7.230;2022-12-07T03:34:52;6.87;;;2.07;;
7729;SDS011;3908;52.310;7.230;2022-12-07T03:37:47;4.40;;;2.07;;
7729;SDS011;3908;52.310;7.230;2022-12-07T03:40:40;10.57;;;1.80;;
7729;SDS011;3908;52.310;7.230;2022-12-07T03:43:35;3.80;;;1.93;;
7729;SDS011;3908;52.310;7.230;2022-12-07T03:46:27;4.90;;;1.77;;
7729;SDS011;3908;52.310;7.230;2022-12-07T03:49:21;9.10;;;2.17;;
7729;SDS011;3908;52.310;7.230;2022-12-07T03:52:12;6.07;;;1.80;;
7729;SDS011;3908;52.310;7.230;2022-12-07T03:55:10;3.83;;;1.60;;
7729;SDS011;3908;52.310;7.230;2022-12-07T03:58:03;5.10;;;2.07;;
7729;SDS011;3908;52.310;7.230;2022-12-07T04:00:52;9.57;;;1.83;;
7729;SDS011;3908;52.310;7.230;2022-12-07T04:03:40;7.00;;;1.90;;
7729;SDS011;3908;52.310;7.230;2022-12-07T04:06:32;9.27;;;1.60;;
7729;SDS011;3908;52.310;7.230;2022-12-07T04:09:19;7.30;;;1.77;;
7729;SDS011;3908;52.310;7.230;2022-12-07T04:12:07;5.00;;;1.90;;
7729;SDS011;3908;52.310;7.230;2022-12-07T04:14:56;5.23;;;1.80;;
7729;SDS011;3908;52.310;7.230;2022-12-07T04:17:44;5.27;;;1.63;;
7729;SDS011;3908;52.310;7.230;2022-12-07T04:20:31;4.00;;;1.93;;
7729;SDS011;3908;52.310;7.230;2022-12-07T04:23:18;4.67;;;2.07;;
7729;SDS011;3908;52.310;7.230;2022-12-07T04:26:05;5.03;;;2.00;;
7729;SDS011;3908;52.310;7.230;2022-12-07T04:28:52;10.80;;;2.27;;
7729;SDS011;3908;52.310;7.230;2022-12-07T04:31:41;9.27;;;2.00;;
7729;SDS011;3908;52.310;7.230;2022-12-07T04:34:29;9.13;;;2.00;;
7729;SDS011;3908;52.310;7.230;2022-12-07T04:37:16;3.23;;;1.40;;
7729;SDS011;3908;52.310;7.230;2022-12-07T04:40:04;3.20;;;1.67;;
7729;SDS011;3908;52.310;7.230;2022-12-07T04:42:52;5.50;;;1.60;;
7729;SDS011;3908;52.310;7.230;2022-12-07T04:45:39;4.43;;;1.40;;
7729;SDS011;3908;52.310;7.230;2022-12-07T04:48:32;5.97;;;1.60;;
7729;SDS011;3908;52.310;7.230;2022-12-07T04:51:21;8.67;;;1.87;;
7729;SDS011;3908;52.310;7.230;2022-12-07T04:54:10;7.10;;;1.60;;
7729;SDS011;3908;52.310;7.230;2022-12-07T04:56:57;5.90;;;1.60;;
7729;SDS011;3908;52.310;7.230;2022-12-07T04:59:44;4.77;;;1.63;;
7729;SDS011;3908;52.310;7.230;2022-12-07T05:02:31;5.63;;;1.40;;
7729;SDS011;3908;52.310;7.230;2022-12-07T05:05:21;7.00;;;2.37;;
7729;SDS011;3908;52.310;7.230;2022-12-07T05:08:10;4.27;;;1.70;;
7729;SDS011;3908;52.310;7.230;2022-12-07T05:10:57;9.63;;;2.10;;
7729;SDS011;3908;52.310;7.230;2022-12-07T05:13:44;8.60;;;1.60;;
7729;SDS011;3908;52.310;7.230;2022-12-07T05:16:33;5.87;;;1.50;;
7729;SDS011;3908;52.310;7.230;2022-12-07T05:19:20;8.97;;;2.40;;
7729;SDS011;3908;52.310;7.230;2022-12-07T05:22:08;4.93;;;1.80;;
7729;SDS011;3908;52.310;7.230;2022-12-07T05:25:01;10.30;;;1.97;;
7729;SDS011;3908;52.310;7.230;2022-12-07T05:27:49;3.83;;;1.70;;
7729;SDS011;3908;52.310;7.230;2022-12-07T05:30:36;6.47;;;1.40;;
7729;SDS011;3908;52.310;7.230;2022-12-07T05:33:26;7.87;;;1.43;;
7729;SDS011;3908;52.310;7.230;2022-12-07T05:36:13;3.93;;;1.57;;
7729;SDS011;3908;52.310;7.230;2022-12-07T05:39:01;4.80;;;1.60;;
7729;SDS011;3908;52.310;7.230;2022-12-07T05:41:49;8.20;;;2.30;;
7729;SDS011;3908;52.310;7.230;2022-12-07T05:44:53;10.70;;;2.00;;
7729;SDS011;3908;52.310;7.230;2022-12-07T05:47:40;13.23;;;2.40;;
7729;SDS011;3908;52.310;7.230;2022-12-07T05:50:28;10.53;;;2.47;;
7729;SDS011;3908;52.310;7.230;2022-12-07T05:53:16;7.87;;;1.57;;
7729;SDS011;3908;52.310;7.230;2022-12-07T05:56:05;4.97;;;2.07;;
7729;SDS011;3908;52.310;7.230;2022-12-07T05:58:53;6.40;;;1.53;;
7729;SDS011;3908;52.310;7.230;2022-12-07T06:02:00;4.83;;;1.80;;
7729;SDS011;3908;52.310;7.230;2022-12-07T06:04:49;2.40;;;1.60;;
7729;SDS011;3908;52.310;7.230;2022-12-07T06:07:36;7.30;;;2.10;;
7729;SDS011;3908;52.310;7.230;2022-12-07T06:10:23;4.30;;;1.53;;
7729;SDS011;3908;52.310;7.230;2022-12-07T06:13:12;5.27;;;1.40;;
7729;SDS011;3908;52.310;7.230;2022-12-07T06:15:58;7.63;;;1.87;;
7729;SDS011;3908;52.310;7.230;2022-12-07T06:18:45;4.13;;;1.80;;
7729;SDS011;3908;52.310;7.230;2022-12-07T06:21:32;5.87;;;1.70;;
7729;SDS011;3908;52.310;7.230;2022-12-07T06:24:20;10.47;;;1.90;;
7729;SDS011;3908;52.310;7.230;2022-12-07T06:27:10;7.90;;;1.60;;
7729;SDS011;3908;52.310;7.230;2022-12-07T06:29:59;3.97;;;1.60;;
7729;SDS011;3908;52.310;7.230;2022-12-07T06:32:51;6.97;;;1.80;;
7729;SDS011;3908;52.310;7.230;2022-12-07T06:35:40;5.40;;;1.60;;
7729;SDS011;3908;52.310;7.230;2022-12-07T06:38:28;9.83;;;1.73;;
7729;SDS011;3908;52.310;7.230;2022-12-07T06:41:16;2.07;;;1.20;;
7729;SDS011;3908;52.310;7.230;2022-12-07T06:44:04;8.00;;;1.97;;
7729;SDS011;3908;52.310;7.230;2022-12-07T06:46:54;4.80;;;2.03;;
7729;SDS011;3908;52.310;7.230;2022-12-07T06:49:45;11.13;;;2.13;;
7729;SDS011;3908;52.310;7.230;2022-12-07T06:52:32;6.40;;;1.97;;
7729;SDS011;3908;52.310;7.230;2022-12-07T06:55:19;10.00;;;1.60;;
7729;SDS011;3908;52.310;7.230;2022-12-07T06:58:06;7.57;;;2.00;;
7729;SDS011;3908;52.310;7.230;2022-12-07T07:00:53;5.97;;;1.60;;
7729;SDS011;3908;52.310;7.230;2022-12-07T07:03:43;10.00;;;1.90;;
7729;SDS011;3908;52.310;7.230;2022-12-07T07:06:31;4.80;;;1.50;;
7729;SDS011;3908;52.310;7.230;2022-12-07T07:09:18;4.50;;;1.50;;
7729;SDS011;3908;52.310;7.230;2022-12-07T07:12:07;6.80;;;1.90;;
7729;SDS011;3908;52.310;7.230;2022-12-07T07:14:54;7.23;;;1.73;;
7729;SDS011;3908;52.310;7.230;2022-12-07T07:17:41;7.70;;;1.70;;
7729;SDS011;3908;52.310;7.230;2022-12-07T07:20:30;9.80;;;1.90;;
7729;SDS011;3908;52.310;7.230;2022-12-07T07:23:18;7.37;;;1.80;;
7729;SDS011;3908;52.310;7.230;2022-12-07T07:26:05;7.33;;;1.93;;
7729;SDS011;3908;52.310;7.230;2022-12-07T07:28:52;5.10;;;1.83;;
7729;SDS011;3908;52.310;7.230;2022-12-07T07:31:40;8.20;;;1.77;;
7729;SDS011;3908;52.310;7.230;2022-12-07T07:34:27;5.73;;;1.90;;
7729;SDS011;3908;52.310;7.230;2022-12-07T07:37:15;6.40;;;1.80;;
7729;SDS011;3908;52.310;7.230;2022-12-07T07:40:02;8.30;;;3.43;;
7729;SDS011;3908;52.310;7.230;2022-12-07T07:42:50;12.27;;;2.47;;
7729;SDS011;3908;52.310;7.230;2022-12-07T07:45:38;4.47;;;1.73;;
7729;SDS011;3908;52.310;7.230;2022-12-07T07:48:25;6.57;;;1.57;;
7729;SDS011;3908;52.310;7.230;2022-12-07T07:51:14;8.40;;;2.30;;
7729;SDS011;3908;52.310;7.230;2022-12-07T07:54:05;5.20;;;1.90;;
7729;SDS011;3908;52.310;7.230;2022-12-07T07:56:52;6.37;;;2.27;;
7729;SDS011;3908;52.310;7.230;2022-12-07T07:59:39;6.27;;;2.03;;
7729;SDS011;3908;52.310;7.230;2022-12-07T08:02:28;6.30;;;2.13;;
7729;SDS011;3908;52.310;7.230;2022-12-07T08:05:15;15.50;;;2.37;;
7729;SDS011;3908;52.310;7.230;2022-12-07T08:08:03;6.07;;;2.43;;
7729;SDS011;3908;52.310;7.230;2022-12-07T08:10:52;8.60;;;2.07;;
7729;SDS011;3908;52.310;7.230;2022-12-07T08:13:40;10.37;;;2.13;;
7729;SDS011;3908;52.310;7.230;2022-12-07T08:16:27;6.00;;;1.93;;
7729;SDS011;3908;52.310;7.230;2022-12-07T08:19:14;6.03;;;1.90;;
7729;SDS011;3908;52.310;7.230;2022-12-07T08:22:01;7.80;;;2.47;;
7729;SDS011;3908;52.310;7.230;2022-12-07T08:24:49;4.57;;;1.90;;
7729;SDS011;3908;52.310;7.230;2022-12-07T08:27:37;8.47;;;2.07;;
7729;SDS011;3908;52.310;7.230;2022-12-07T08:30:24;8.10;;;2.33;;
7729;SDS011;3908;52.310;7.230;2022-12-07T08:33:11;9.60;;;2.33;;
7729;SDS011;3908;52.310;7.230;2022-12-07T08:35:59;8.03;;;1.87;;
7729;SDS011;3908;52.310;7.230;2022-12-07T08:38:47;7.20;;;2.33;;
7729;SDS011;3908;52.310;7.230;2022-12-07T08:41:35;7.80;;;2.20;;
7729;SDS011;3908;52.310;7.230;2022-12-07T08:44:26;3.63;;;2.03;;
7729;SDS011;3908;52.310;7.230;2022-12-07T08:47:14;7.57;;;1.90;;
7729;SDS011;3908;52.310;7.230;2022-12-07T08:50:04;12.73;;;1.97;;
7729;SDS011;3908;52.310;7.230;2022-12-07T08:52:54;6.73;;;1.90;;
7729;SDS011;3908;52.310;7.230;2022-12-07T08:55:44;5.20;;;1.90;;
7729;SDS011;3908;52.310;7.230;2022-12-07T08:58:33;3.33;;;1.93;;
7729;SDS011;3908;52.310;7.230;2022-12-07T09:01:22;6.77;;;2.00;;
7729;SDS011;3908;52.310;7.230;2022-12-07T09:04:09;9.07;;;2.00;;
7729;SDS011;3908;52.310;7.230;2022-12-07T09:06:57;10.93;;;2.00;;
7729;SDS011;3908;52.310;7.230;2022-12-07T09:09:45;7.43;;;2.20;;
7729;SDS011;3908;52.310;7.230;2022-12-07T09:12:32;5.77;;;2.00;;
7729;SDS011;3908;52.310;7.230;2022-12-07T09:15:19;2.73;;;1.60;;
7729;SDS011;3908;52.310;7.230;2022-12-07T09:18:07;7.40;;;2.23;;
7729;SDS011;3908;52.310;7.230;2022-12-07T09:20:55;9.97;;;2.40;;
7729;SDS011;3908;52.310;7.230;2022-12-07T09:23:43;9.63;;;2.20;;
7729;SDS011;3908;52.310;7.230;2022-12-07T09:26:30;7.97;;;2.57;;
7729;SDS011;3908;52.310;7.230;2022-12-07T09:29:17;7.10;;;1.87;;
7729;SDS011;3908;52.310;7.230;2022-12-07T09:32:05;8.23;;;2.30;;
7729;SDS011;3908;52.310;7.230;2022-12-07T09:34:53;12.03;;;2.23;;
7729;SDS011;3908;52.310;7.230;2022-12-07T09:37:41;5.67;;;2.13;;
7729;SDS011;3908;52.310;7.230;2022-12-07T09:40:31;6.10;;;1.80;;
7729;SDS011;3908;52.310;7.230;2022-12-07T09:43:21;7.93;;;2.17;;
7729;SDS011;3908;52.310;7.230;2022-12-07T09:46:11;8.03;;;2.10;;
7729;SDS011;3908;52.310;7.230;2022-12-07T09:49:00;5.13;;;1.93;;
7729;SDS011;3908;52.310;7.230;2022-12-07T09:51:58;5.93;;;2.00;;
7729;SDS011;3908;52.310;7.230;2022-12-07T09:54:48;9.13;;;2.40;;
7729;SDS011;3908;52.310;7.230;2022-12-07T09:57:36;9.00;;;2.30;;
7729;SDS011;3908;52.310;7.230;2022-12-07T10:00:24;4.00;;;2.00;;
7729;SDS011;3908;52.310;7.230;2022-12-07T10:03:13;4.20;;;2.10;;
7729;SDS011;3908;52.310;7.230;2022-12-07T10:06:01;10.00;;;2.60;;
7729;SDS011;3908;52.310;7.230;2022-12-07T10:08:50;9.67;;;2.23;;
7729;SDS011;3908;52.310;7.230;2022-12-07T10:14:53;8.17;;;2.60;;
7729;SDS011;3908;52.310;7.230;2022-12-07T10:17:47;7.93;;;2.20;;
7729;SDS011;3908;52.310;7.230;2022-12-07T10:20:35;4.83;;;1.60;;
7729;SDS011;3908;52.310;7.230;2022-12-07T10:23:23;3.97;;;2.17;;
7729;SDS011;3908;52.310;7.230;2022-12-07T10:26:25;5.63;;;1.90;;
7729;SDS011;3908;52.310;7.230;2022-12-07T10:32:56;3.83;;;1.43;;
7729;SDS011;3908;52.310;7.230;2022-12-07T10:35:43;6.17;;;1.90;;
7729;SDS011;3908;52.310;7.230;2022-12-07T10:38:33;2.43;;;1.70;;
7729;SDS011;3908;52.310;7.230;2022-12-07T10:41:31;8.17;;;1.80;;
7729;SDS011;3908;52.310;7.230;2022-12-07T10:44:20;6.67;;;1.80;;
7729;SDS011;3908;52.310;7.230;2022-12-07T10:47:17;3.63;;;1.70;;
7729;SDS011;3908;52.310;7.230;2022-12-07T10:50:27;8.13;;;1.73;;
7729;SDS011;3908;52.310;7.230;2022-12-07T10:53:30;5.57;;;2.10;;
7729;SDS011;3908;52.310;7.230;2022-12-07T10:56:41;3.20;;;1.70;;
7729;SDS011;3908;52.310;7.230;2022-12-07T10:59:42;6.47;;;1.90;;
7729;SDS011;3908;52.310;7.230;2022-12-07T11:06:13;7.37;;;1.63;;
7729;SDS011;3908;52.310;7.230;2022-12-07T11:09:20;6.03;;;1.73;;
7729;SDS011;3908;52.310;7.230;2022-12-07T11:12:31;3.50;;;1.80;;
7729;SDS011;3908;52.310;7.230;2022-12-07T11:15:28;5.10;;;2.00;;
7729;SDS011;3908;52.310;7.230;2022-12-07T11:18:29;12.87;;;1.93;;
7729;SDS011;3908;52.310;7.230;2022-12-07T11:21:21;8.80;;;1.90;;
7729;SDS011;3908;52.310;7.230;2022-12-07T11:24:14;6.80;;;2.20;;
7729;SDS011;3908;52.310;7.230;2022-12-07T11:27:07;10.50;;;2.03;;
7729;SDS011;3908;52.310;7.230;2022-12-07T11:30:08;6.07;;;2.40;;
7729;SDS011;3908;52.310;7.230;2022-12-07T11:33:03;5.57;;;1.90;;
7729;SDS011;3908;52.310;7.230;2022-12-07T11:36:02;4.30;;;1.67;;
7729;SDS011;3908;52.310;7.230;2022-12-07T11:39:00;7.23;;;2.23;;
7729;SDS011;3908;52.310;7.230;2022-12-07T11:41:51;3.90;;;1.50;;
7729;SDS011;3908;52.310;7.230;2022-12-07T11:44:46;6.03;;;1.50;;
7729;SDS011;3908;52.310;7.230;2022-12-07T11:47:40;7.13;;;2.10;;
7729;SDS011;3908;52.310;7.230;2022-12-07T11:50:34;8.63;;;1.87;;
7729;SDS011;3908;52.310;7.230;2022-12-07T11:53:26;3.00;;;1.50;;
7729;SDS011;3908;52.310;7.230;2022-12-07T11:56:17;7.37;;;1.83;;
7729;SDS011;3908;52.310;7.230;2022-12-07T11:59:11;5.63;;;1.40;;
7729;SDS011;3908;52.310;7.230;2022-12-07T12:02:09;4.93;;;1.57;;
7729;SDS011;3908;52.310;7.230;2022-12-07T12:05:05;7.73;;;1.80;;
7729;SDS011;3908;52.310;7.230;2022-12-07T12:08:03;2.63;;;1.40;;
7729;SDS011;3908;52.310;7.230;2022-12-07T12:11:03;7.33;;;1.67;;
7729;SDS011;3908;52.310;7.230;2022-12-07T12:14:11;3.67;;;1.60;;
7729;SDS011;3908;52.310;7.230;2022-12-07T12:17:23;4.57;;;1.40;;
7729;SDS011;3908;52.310;7.230;2022-12-07T12:20:27;5.27;;;1.80;;
7729;SDS011;3908;52.310;7.230;2022-12-07T12:23:18;6.23;;;1.60;;
7729;SDS011;3908;52.310;7.230;2022-12-07T12:26:14;6.47;;;2.13;;
7729;SDS011;3908;52.310;7.230;2022-12-07T12:29:06;4.50;;;1.93;;
7729;SDS011;3908;52.310;7.230;2022-12-07T12:32:13;4.97;;;1.50;;
7729;SDS011;3908;52.310;7.230;2022-12-07T12:38:29;3.77;;;1.40;;
7729;SDS011;3908;52.310;7.230;2022-12-07T12:54:28;5.40;;;1.90;;
7729;SDS011;3908;52.310;7.230;2022-12-07T12:57:18;6.17;;;1.83;;
7729;SDS011;3908;52.310;7.230;2022-12-07T13:00:16;6.57;;;1.87;;
7729;SDS011;3908;52.310;7.230;2022-12-07T13:03:05;6.57;;;1.97;;
7729;SDS011;3908;52.310;7.230;2022-12-07T13:06:07;4.93;;;1.93;;
7729;SDS011;3908;52.310;7.230;2022-12-07T13:09:15;6.17;;;2.53;;
7729;SDS011;3908;52.310;7.230;2022-12-07T13:12:14;5.17;;;1.80;;
7729;SDS011;3908;52.310;7.230;2022-12-07T13:15:03;7.30;;;2.00;;
7729;SDS011;3908;52.310;7.230;2022-12-07T13:17:55;8.13;;;1.80;;
7729;SDS011;3908;52.310;7.230;2022-12-07T13:20:49;6.63;;;1.90;;
7729;SDS011;3908;52.310;7.230;2022-12-07T13:23:38;5.43;;;2.23;;
7729;SDS011;3908;52.310;7.230;2022-12-07T13:26:43;7.53;;;1.80;;
7729;SDS011;3908;52.310;7.230;2022-12-07T13:29:35;5.83;;;1.90;;
7729;SDS011;3908;52.310;7.230;2022-12-07T13:32:24;7.23;;;1.77;;
7729;SDS011;3908;52.310;7.230;2022-12-07T13:35:32;6.07;;;1.90;;
7729;SDS011;3908;52.310;7.230;2022-12-07T13:38:23;4.27;;;1.67;;
7729;SDS011;3908;52.310;7.230;2022-12-07T13:41:14;6.00;;;2.17;;
7729;SDS011;3908;52.310;7.230;2022-12-07T13:44:05;8.70;;;2.40;;
7729;SDS011;3908;52.310;7.230;2022-12-07T13:46:59;5.27;;;2.00;;
7729;SDS011;3908;52.310;7.230;2022-12-07T13:49:54;10.00;;;2.00;;
7729;SDS011;3908;52.310;7.230;2022-12-07T13:52:43;9.70;;;1.60;;
7729;SDS011;3908;52.310;7.230;2022-12-07T13:55:31;6.23;;;1.60;;
7729;SDS011;3908;52.310;7.230;2022-12-07T13:58:19;6.87;;;1.90;;
7729;SDS011;3908;52.310;7.230;2022-12-07T14:01:09;5.10;;;1.40;;
7729;SDS011;3908;52.310;7.230;2022-12-07T14:07:18;11.00;;;1.90;;
7729;SDS011;3908;52.310;7.230;2022-12-07T14:10:22;7.10;;;1.87;;
7729;SDS011;3908;52.310;7.230;2022-12-07T14:13:22;6.63;;;1.73;;
7729;SDS011;3908;52.310;7.230;2022-12-07T14:16:21;9.87;;;1.80;;
7729;SDS011;3908;52.310;7.230;2022-12-07T14:22:29;4.00;;;1.80;;
7729;SDS011;3908;52.310;7.230;2022-12-07T14:25:21;9.03;;;1.87;;
7729;SDS011;3908;52.310;7.230;2022-12-07T14:28:09;5.67;;;1.80;;
7729;SDS011;3908;52.310;7.230;2022-12-07T14:31:13;4.57;;;1.87;;
7729;SDS011;3908;52.310;7.230;2022-12-07T14:34:05;6.63;;;1.93;;
7729;SDS011;3908;52.310;7.230;2022-12-07T14:37:03;4.73;;;1.90;;
7729;SDS011;3908;52.310;7.230;2022-12-07T14:39:53;6.20;;;2.10;;
7729;SDS011;3908;52.310;7.230;2022-12-07T14:42:41;6.33;;;2.00;;
7729;SDS011;3908;52.310;7.230;2022-12-07T14:45:30;6.40;;;2.17;;
7729;SDS011;3908;52.310;7.230;2022-12-07T14:48:17;6.80;;;2.30;;
7729;SDS011;3908;52.310;7.230;2022-12-07T14:51:09;8.03;;;1.80;;
7729;SDS011;3908;52.310;7.230;2022-12-07T14:54:00;20.63;;;4.00;;
7729;SDS011;3908;52.310;7.230;2022-12-07T14:56:47;7.20;;;1.90;;
7729;SDS011;3908;52.310;7.230;2022-12-07T14:59:37;4.17;;;1.90;;
7729;SDS011;3908;52.310;7.230;2022-12-07T15:02:25;9.20;;;1.90;;
7729;SDS011;3908;52.310;7.230;2022-12-07T15:05:15;7.50;;;1.73;;
7729;SDS011;3908;52.310;7.230;2022-12-07T15:08:06;8.80;;;1.73;;
7729;SDS011;3908;52.310;7.230;2022-12-07T15:10:55;10.47;;;2.10;;
7729;SDS011;3908;52.310;7.230;2022-12-07T15:13:46;6.07;;;3.07;;
7729;SDS011;3908;52.310;7.230;2022-12-07T15:16:51;9.63;;;2.30;;
7729;SDS011;3908;52.310;7.230;2022-12-07T15:19:38;4.07;;;2.63;;
7729;SDS011;3908;52.310;7.230;2022-12-07T15:22:27;2.97;;;1.93;;
7729;SDS011;3908;52.310;7.230;2022-12-07T15:25:24;10.63;;;4.87;;
7729;SDS011;3908;52.310;7.230;2022-12-07T15:28:11;8.10;;;2.30;;
7729;SDS011;3908;52.310;7.230;2022-12-07T15:31:03;5.37;;;2.17;;
7729;SDS011;3908;52.310;7.230;2022-12-07T15:33:52;6.47;;;3.00;;
7729;SDS011;3908;52.310;7.230;2022-12-07T15:36:39;20.13;;;10.53;;
7729;SDS011;3908;52.310;7.230;2022-12-07T15:39:26;8.13;;;5.67;;
7729;SDS011;3908;52.310;7.230;2022-12-07T15:42:15;15.77;;;7.47;;
7729;SDS011;3908;52.310;7.230;2022-12-07T15:45:02;9.00;;;4.03;;
7729;SDS011;3908;52.310;7.230;2022-12-07T15:47:52;12.07;;;5.47;;
7729;SDS011;3908;52.310;7.230;2022-12-07T15:50:41;13.10;;;10.67;;
7729;SDS011;3908;52.310;7.230;2022-12-07T15:53:28;8.60;;;3.27;;
7729;SDS011;3908;52.310;7.230;2022-12-07T15:56:15;8.93;;;3.03;;
7729;SDS011;3908;52.310;7.230;2022-12-07T15:59:04;8.10;;;2.90;;
7729;SDS011;3908;52.310;7.230;2022-12-07T16:01:51;11.77;;;3.50;;
7729;SDS011;3908;52.310;7.230;2022-12-07T16:04:38;4.77;;;2.20;;
7729;SDS011;3908;52.310;7.230;2022-12-07T16:07:25;15.43;;;13.37;;
7729;SDS011;3908;52.310;7.230;2022-12-07T16:10:12;8.10;;;4.60;;
7729;SDS011;3908;52.310;7.230;2022-12-07T16:12:59;8.60;;;3.13;;
7729;SDS011;3908;52.310;7.230;2022-12-07T16:15:47;5.80;;;3.60;;
7729;SDS011;3908;52.310;7.230;2022-12-07T16:18:34;3.77;;;2.60;;
7729;SDS011;3908;52.310;7.230;2022-12-07T16:21:21;9.90;;;2.73;;
7729;SDS011;3908;52.310;7.230;2022-12-07T16:24:08;11.23;;;7.03;;
7729;SDS011;3908;52.310;7.230;2022-12-07T16:26:55;8.73;;;3.07;;
7729;SDS011;3908;52.310;7.230;2022-12-07T16:29:42;6.70;;;2.80;;
7729;SDS011;3908;52.310;7.230;2022-12-07T16:32:31;7.30;;;4.07;;
7729;SDS011;3908;52.310;7.230;2022-12-07T16:35:18;15.53;;;7.33;;
7729;SDS011;3908;52.310;7.230;2022-12-07T16:38:05;14.37;;;8.80;;
7729;SDS011;3908;52.310;7.230;2022-12-07T16:40:53;12.20;;;3.20;;
7729;SDS011;3908;52.310;7.230;2022-12-07T16:43:40;8.50;;;5.20;;
7729;SDS011;3908;52.310;7.230;2022-12-07T16:46:27;8.07;;;5.53;;
7729;SDS011;3908;52.310;7.230;2022-12-07T16:49:15;5.73;;;3.73;;
7729;SDS011;3908;52.310;7.230;2022-12-07T16:52:04;7.93;;;2.87;;
7729;SDS011;3908;52.310;7.230;2022-12-07T16:54:57;7.90;;;2.97;;
7729;SDS011;3908;52.310;7.230;2022-12-07T16:57:44;7.17;;;3.60;;
7729;SDS011;3908;52.310;7.230;2022-12-07T17:00:31;7.43;;;3.70;;
7729;SDS011;3908;52.310;7.230;2022-12-07T17:03:18;10.13;;;7.80;;
7729;SDS011;3908;52.310;7.230;2022-12-07T17:06:12;17.17;;;7.73;;
7729;SDS011;3908;52.310;7.230;2022-12-07T17:09:00;14.80;;;7.63;;
7729;SDS011;3908;52.310;7.230;2022-12-07T17:11:47;29.57;;;10.10;;
7729;SDS011;3908;52.310;7.230;2022-12-07T17:14:34;21.37;;;9.63;;
7729;SDS011;3908;52.310;7.230;2022-12-07T17:17:39;8.50;;;3.30;;
7729;SDS011;3908;52.310;7.230;2022-12-07T17:20:26;6.93;;;2.80;;
7729;SDS011;3908;52.310;7.230;2022-12-07T17:23:15;5.63;;;2.33;;
7729;SDS011;3908;52.310;7.230;2022-12-07T17:26:03;4.03;;;1.97;;
7729;SDS011;3908;52.310;7.230;2022-12-07T17:28:51;4.87;;;2.30;;
7729;SDS011;3908;52.310;7.230;2022-12-07T17:31:38;4.97;;;1.90;;
7729;SDS011;3908;52.310;7.230;2022-12-07T17:34:26;4.10;;;2.30;;
7729;SDS011;3908;52.310;7.230;2022-12-07T17:37:13;6.23;;;2.30;;
7729;SDS011;3908;52.310;7.230;2022-12-07T17:40:01;3.63;;;1.77;;
7729;SDS011;3908;52.310;7.230;2022-12-07T17:42:48;5.00;;;1.53;;
7729;SDS011;3908;52.310;7.230;2022-12-07T17:45:35;2.73;;;1.87;;
7729;SDS011;3908;52.310;7.230;2022-12-07T17:48:23;5.17;;;1.67;;
7729;SDS011;3908;52.310;7.230;2022-12-07T17:51:10;2.77;;;1.40;;
7729;SDS011;3908;52.310;7.230;2022-12-07T17:54:14;2.80;;;1.47;;
7729;SDS011;3908;52.310;7.230;2022-12-07T17:57:03;2.67;;;1.43;;
7729;SDS011;3908;52.310;7.230;2022-12-07T17:59:51;4.77;;;1.73;;
7729;SDS011;3908;52.310;7.230;2022-12-07T18:02:39;5.57;;;2.43;;
7729;SDS011;3908;52.310;7.230;2022-12-07T18:05:26;6.63;;;3.03;;
7729;SDS011;3908;52.310;7.230;2022-12-07T18:08:13;3.77;;;1.83;;
7729;SDS011;3908;52.310;7.230;2022-12-07T18:11:01;7.47;;;3.07;;
7729;SDS011;3908;52.310;7.230;2022-12-07T18:13:51;5.27;;;2.13;;